Time;durP1;ratioP1;P1;durP2;ratioP2;P2;SDS_P1;SDS_P2;PMS_P1;PMS_P2;Temp;Humidity;BMP_temperature;BMP_pressure;BME280_temperature;BME280_humidity;BME280_pressure;Samples;Min_cycle;Max_cycle;Signal;HPM_P1;HPM_P2
2021/06/24 00:01:05;;;;;;;12.40;11.70;;;25.20;99.20;;;;;;3616558;39;20483;-62
2021/06/24 00:03:33;;;;;;;11.10;10.60;;;25.20;99.10;;;;;;3616865;39;20482;-62
2021/06/24 00:06:01;;;;;;;11.80;11.20;;;25.10;99.10;;;;;;3616923;39;20467;-62
2021/06/24 00:08:28;;;;;;;11.63;11.00;;;25.10;99.20;;;;;;3616340;39;20486;-62
2021/06/24 00:10:58;;;;;;;11.57;10.97;;;25.10;99.60;;;;;;3616981;39;20779;-62
2021/06/24 00:13:27;;;;;;;11.30;10.70;;;25.10;99.30;;;;;;3616683;39;20476;-62
2021/06/24 00:15:56;;;;;;;11.90;11.17;;;25.10;99.30;;;;;;3617183;39;20559;-62
2021/06/24 00:18:23;;;;;;;11.23;10.53;;;25.10;99.30;;;;;;3615952;39;20491;-62
2021/06/24 00:20:51;;;;;;;11.50;10.90;;;25.10;99.20;;;;;;3616475;39;20572;-62
2021/06/24 00:23:18;;;;;;;11.50;10.90;;;25.10;99.20;;;;;;3616723;39;20856;-62
2021/06/24 00:25:46;;;;;;;12.70;11.80;;;25.20;99.30;;;;;;3617078;39;20477;-62
2021/06/24 00:28:16;;;;;;;11.70;11.00;;;25.10;99.20;;;;;;3616706;39;20475;-62
2021/06/24 00:30:44;;;;;;;11.40;10.80;;;25.10;99.20;;;;;;3617184;39;20459;-62
2021/06/24 00:33:13;;;;;;;11.53;10.83;;;25.10;99.60;;;;;;3616474;39;20490;-62
2021/06/24 00:35:40;;;;;;;11.90;11.20;;;25.10;99.30;;;;;;3615900;39;20479;-62
2021/06/24 00:38:08;;;;;;;11.30;10.70;;;25.10;99.30;;;;;;3615556;39;20482;-62
2021/06/24 00:40:36;;;;;;;11.07;10.30;;;25.10;99.30;;;;;;3615767;39;20478;-62
2021/06/24 00:43:06;;;;;;;11.13;10.63;;;25.10;99.30;;;;;;3616281;39;20475;-62
2021/06/24 00:45:33;;;;;;;10.80;10.20;;;25.10;99.20;;;;;;3616891;39;20495;-62
2021/06/24 00:48:01;;;;;;;10.83;10.20;;;25.10;99.10;;;;;;3616249;39;20885;-62
2021/06/24 00:50:29;;;;;;;12.10;11.20;;;25.10;99.00;;;;;;3616113;39;20527;-62
2021/06/24 00:52:58;;;;;;;10.27;9.67;;;25.10;98.90;;;;;;3616058;39;21124;-62
2021/06/24 00:58:07;;;;;;;10.20;9.70;;;25.10;98.80;;;;;;3615632;39;20489;-62
2021/06/24 01:00:34;;;;;;;11.00;10.20;;;25.00;98.70;;;;;;3615486;39;20482;-61
2021/06/24 01:03:01;;;;;;;11.43;10.83;;;25.10;98.70;;;;;;3615564;39;20486;-62
2021/06/24 01:05:30;;;;;;;11.27;10.47;;;25.00;98.70;;;;;;3605933;39;20560;-62
2021/06/24 01:07:59;;;;;;;10.93;10.23;;;25.10;98.60;;;;;;3606596;39;20515;-62
2021/06/24 01:10:27;;;;;;;9.67;9.23;;;25.10;98.60;;;;;;3605402;39;20772;-61
2021/06/24 01:12:55;;;;;;;9.50;9.10;;;25.00;98.60;;;;;;3605684;39;20569;-62
2021/06/24 01:15:22;;;;;;;10.40;9.80;;;25.10;98.50;;;;;;3605109;39;20468;-62
2021/06/24 01:17:49;;;;;;;10.27;9.77;;;25.00;98.50;;;;;;3601876;39;20505;-62
2021/06/24 01:20:22;;;;;;;9.50;9.10;;;25.10;98.50;;;;;;3596145;39;20473;-62
2021/06/24 01:22:52;;;;;;;10.53;9.80;;;25.10;98.40;;;;;;3595690;40;20489;-62
2021/06/24 01:25:21;;;;;;;9.90;9.40;;;25.00;98.40;;;;;;3595743;39;20473;-62
2021/06/24 01:27:55;;;;;;;10.47;9.97;;;25.10;98.40;;;;;;3595995;40;20497;-62
2021/06/24 01:30:23;;;;;;;10.13;9.73;;;25.00;98.30;;;;;;3596033;40;20469;-62
2021/06/24 01:32:56;;;;;;;10.27;9.60;;;25.00;98.30;;;;;;3596720;39;20500;-62
2021/06/24 01:35:25;;;;;;;9.90;9.50;;;25.00;98.20;;;;;;3595180;40;20484;-61
2021/06/24 01:37:56;;;;;;;10.20;9.70;;;25.00;98.20;;;;;;3596285;39;20465;-61
2021/06/24 01:40:25;;;;;;;10.23;9.60;;;25.00;98.20;;;;;;3595512;40;20465;-61
2021/06/24 01:42:54;;;;;;;10.30;9.80;;;25.00;98.10;;;;;;3595958;40;20766;-61
2021/06/24 01:45:25;;;;;;;10.07;9.57;;;25.10;98.10;;;;;;3595700;39;20474;-62
2021/06/24 01:47:52;;;;;;;9.97;9.43;;;25.10;98.10;;;;;;3596486;39;20473;-60
2021/06/24 01:50:21;;;;;;;10.37;9.87;;;25.10;98.00;;;;;;3594763;40;20488;-61
2021/06/24 01:52:50;;;;;;;10.20;9.70;;;25.10;97.90;;;;;;3594560;40;20489;-61
2021/06/24 01:55:31;;;;;;;10.40;10.00;;;25.10;97.90;;;;;;3596279;39;20831;-62
2021/06/24 01:58:02;;;;;;;10.90;10.40;;;25.10;97.90;;;;;;3594955;40;20475;-62
2021/06/24 02:01:02;;;;;;;10.60;10.20;;;25.10;97.90;;;;;;3593006;40;21112;-62
2021/06/24 02:03:37;;;;;;;10.50;9.80;;;25.10;97.90;;;;;;3595317;39;20485;-62
2021/06/24 02:06:06;;;;;;;11.00;10.40;;;25.10;97.80;;;;;;3593708;40;20497;-62
2021/06/24 02:08:36;;;;;;;10.27;9.87;;;25.10;98.00;;;;;;3594829;39;20481;-62
2021/06/24 02:11:23;;;;;;;11.10;10.20;;;25.10;97.80;;;;;;3594687;40;20520;-61
2021/06/24 02:13:58;;;;;;;9.83;9.43;;;25.10;97.90;;;;;;3594963;40;20494;-62
2021/06/24 02:16:26;;;;;;;10.47;9.97;;;25.10;97.80;;;;;;3594980;39;20565;-62
2021/06/24 02:18:55;;;;;;;10.40;9.90;;;25.10;97.80;;;;;;3600425;39;20473;-61
2021/06/24 02:21:44;;;;;;;10.50;10.00;;;25.00;97.80;;;;;;3594375;40;20465;-60
2021/06/24 02:24:14;;;;;;;9.90;9.50;;;25.10;97.70;;;;;;3595118;39;20478;-61
2021/06/24 02:26:47;;;;;;;10.63;10.10;;;25.10;97.70;;;;;;3594501;40;20491;-61
2021/06/24 02:29:51;;;;;;;10.50;10.10;;;25.00;97.70;;;;;;3595194;40;20473;-61
2021/06/24 02:32:19;;;;;;;10.33;9.87;;;25.00;97.60;;;;;;3594493;40;20489;-61
2021/06/24 02:34:55;;;;;;;10.57;10.07;;;25.00;97.60;;;;;;3593878;40;20473;-61
2021/06/24 02:37:41;;;;;;;10.20;9.77;;;25.00;97.70;;;;;;3594963;39;20469;-61
2021/06/24 02:40:38;;;;;;;10.30;9.73;;;25.00;97.70;;;;;;3591139;39;21003;-60
2021/06/24 02:43:07;;;;;;;9.97;9.57;;;25.00;98.00;;;;;;3595043;39;20846;-61
2021/06/24 02:45:44;;;;;;;10.43;10.03;;;25.00;97.70;;;;;;3593887;40;20485;-60
2021/06/24 02:48:29;;;;;;;10.00;9.50;;;25.00;97.60;;;;;;3594929;39;20485;-61
2021/06/24 02:51:01;;;;;;;9.80;9.40;;;25.00;97.60;;;;;;3594071;40;20537;-61
2021/06/24 02:53:29;;;;;;;10.10;9.60;;;25.00;97.50;;;;;;3594310;40;20469;-61
2021/06/24 02:56:01;;;;;;;9.97;9.47;;;25.00;97.60;;;;;;3594918;39;20493;-61
2021/06/24 02:58:36;;;;;;;10.10;9.70;;;25.00;97.50;;;;;;3597486;39;20730;-61
2021/06/24 03:01:13;;;;;;;10.10;9.60;;;25.00;97.50;;;;;;3596088;40;20517;-65
2021/06/24 03:04:04;;;;;;;10.60;10.10;;;25.00;97.50;;;;;;3596316;39;20476;-65
2021/06/24 03:06:34;;;;;;;10.77;10.37;;;25.00;97.40;;;;;;3596565;40;20725;-65
2021/06/24 03:09:03;;;;;;;11.10;10.60;;;25.00;97.40;;;;;;3598567;39;20866;-65
2021/06/24 03:11:30;;;;;;;11.33;10.70;;;25.00;97.40;;;;;;3607031;39;20464;-65
2021/06/24 03:14:02;;;;;;;11.60;11.10;;;25.00;97.40;;;;;;3597770;39;20870;-65
2021/06/24 03:16:35;;;;;;;11.17;10.67;;;25.00;97.40;;;;;;3606288;39;20492;-65
2021/06/24 03:19:04;;;;;;;10.90;10.47;;;25.00;97.50;;;;;;3616024;39;21042;-65
2021/06/24 03:21:32;;;;;;;11.27;10.87;;;25.00;97.40;;;;;;3606693;39;20475;-65
2021/06/24 03:24:01;;;;;;;11.17;10.67;;;25.00;97.40;;;;;;3606724;39;20475;-65
2021/06/24 03:26:30;;;;;;;12.00;11.20;;;25.00;97.50;;;;;;3607367;39;20463;-65
2021/06/24 03:29:09;;;;;;;28.43;12.50;;;25.00;97.40;;;;;;3606949;39;20487;-65
2021/06/24 03:31:54;;;;;;;12.40;11.80;;;25.00;97.40;;;;;;3606748;39;20502;-65
2021/06/24 03:34:30;;;;;;;11.97;11.47;;;25.00;97.40;;;;;;3616857;39;20491;-65
2021/06/24 03:36:58;;;;;;;11.30;10.80;;;25.00;97.50;;;;;;3616117;39;20570;-65
2021/06/24 03:39:33;;;;;;;11.57;11.07;;;24.90;97.40;;;;;;3605886;39;20506;-65
2021/06/24 03:42:01;;;;;;;11.60;11.00;;;25.00;97.40;;;;;;3607117;39;20511;-65
2021/06/24 03:44:32;;;;;;;11.80;11.10;;;24.90;97.30;;;;;;3607564;39;20494;-65
2021/06/24 03:47:01;;;;;;;12.10;11.50;;;24.90;97.30;;;;;;3606805;39;20502;-65
2021/06/24 03:49:29;;;;;;;12.87;12.27;;;24.90;97.30;;;;;;3606038;39;20502;-65
2021/06/24 03:51:57;;;;;;;11.40;10.90;;;24.90;97.20;;;;;;3606152;39;20475;-65
2021/06/24 03:54:26;;;;;;;11.60;11.10;;;25.00;97.10;;;;;;3606125;39;20471;-65
2021/06/24 03:56:53;;;;;;;11.03;10.53;;;25.00;97.10;;;;;;3615609;39;20483;-65
2021/06/24 03:59:20;;;;;;;11.43;11.00;;;25.00;97.10;;;;;;3606295;39;20491;-65
2021/06/24 04:01:53;;;;;;;11.77;11.23;;;25.00;97.10;;;;;;3616325;39;20577;-65
2021/06/24 04:04:22;;;;;;;12.23;11.53;;;24.90;97.20;;;;;;3606927;39;20471;-65
2021/06/24 04:06:54;;;;;;;12.23;11.83;;;24.90;97.20;;;;;;3615015;39;20579;-65
2021/06/24 04:09:23;;;;;;;12.50;11.90;;;24.90;97.20;;;;;;3614876;39;20501;-65
2021/06/24 04:11:50;;;;;;;13.60;13.00;;;24.90;97.20;;;;;;3615097;39;20536;-65
2021/06/24 04:14:35;;;;;;;12.33;11.73;;;24.90;97.30;;;;;;3615848;39;20479;-65
2021/06/24 04:17:16;;;;;;;12.57;12.03;;;24.90;97.30;;;;;;3615528;39;20535;-65
2021/06/24 04:19:44;;;;;;;12.87;12.37;;;24.90;97.30;;;;;;3615945;39;20494;-65
2021/06/24 04:22:12;;;;;;;13.07;12.57;;;24.90;97.20;;;;;;3606255;39;21032;-65
2021/06/24 04:24:59;;;;;;;12.20;11.60;;;25.00;97.20;;;;;;3614830;39;20495;-65
2021/06/24 04:27:26;;;;;;;12.90;12.40;;;25.00;97.30;;;;;;3615334;39;20483;-65
2021/06/24 04:29:55;;;;;;;12.80;12.30;;;24.90;97.20;;;;;;3606049;39;20475;-65
2021/06/24 04:32:22;;;;;;;12.63;12.13;;;24.90;97.20;;;;;;3613577;39;20715;-65
2021/06/24 04:34:51;;;;;;;13.40;12.83;;;24.90;97.20;;;;;;3611726;39;20471;-65
2021/06/24 04:37:24;;;;;;;13.63;13.03;;;24.90;97.20;;;;;;3612926;39;20878;-65
2021/06/24 04:39:52;;;;;;;13.90;12.90;;;24.90;97.20;;;;;;3603583;39;20752;-65
2021/06/24 04:42:24;;;;;;;12.83;12.33;;;25.00;97.20;;;;;;3612537;39;20479;-65
2021/06/24 04:45:08;;;;;;;13.70;13.10;;;25.00;97.30;;;;;;3612667;39;20482;-65
2021/06/24 04:47:44;;;;;;;12.90;12.30;;;25.00;97.20;;;;;;3613376;39;20871;-65
2021/06/24 04:50:13;;;;;;;13.63;13.07;;;25.00;97.20;;;;;;3601747;39;20469;-65
2021/06/24 04:52:51;;;;;;;14.10;13.30;;;25.00;97.20;;;;;;3601872;39;20542;-65
2021/06/24 04:55:26;;;;;;;15.43;14.50;;;25.00;97.10;;;;;;3610194;39;21386;-65
2021/06/24 04:57:56;;;;;;;13.23;12.73;;;25.00;97.10;;;;;;3601377;39;21040;-65
2021/06/24 05:00:36;;;;;;;12.80;12.30;;;25.10;97.10;;;;;;3612175;39;20532;-65
2021/06/24 05:03:22;;;;;;;13.07;12.57;;;25.10;97.10;;;;;;3610945;39;20499;-65
2021/06/24 05:05:53;;;;;;;13.70;13.00;;;25.10;97.10;;;;;;3600876;39;20494;-65
2021/06/24 05:08:22;;;;;;;12.73;12.23;;;25.10;97.10;;;;;;3608787;39;20495;-65
2021/06/24 05:10:49;;;;;;;12.97;12.47;;;25.10;97.10;;;;;;3608322;39;20476;-65
2021/06/24 05:13:17;;;;;;;13.30;12.70;;;25.10;97.10;;;;;;3608476;39;20540;-65
2021/06/24 05:15:45;;;;;;;12.80;12.30;;;25.10;97.10;;;;;;3607910;39;20567;-65
2021/06/24 05:18:14;;;;;;;13.43;12.57;;;25.10;97.10;;;;;;3609312;39;20497;-65
2021/06/24 05:20:43;;;;;;;12.20;11.70;;;25.10;97.10;;;;;;3608282;39;20479;-65
2021/06/24 05:23:13;;;;;;;12.33;11.83;;;25.20;97.10;;;;;;3594748;39;20470;-65
2021/06/24 05:25:40;;;;;;;12.90;12.30;;;25.20;97.10;;;;;;3606746;39;20495;-65
2021/06/24 05:28:08;;;;;;;12.80;12.20;;;25.20;97.30;;;;;;3605738;39;20485;-65
2021/06/24 05:30:36;;;;;;;12.50;12.00;;;25.20;97.10;;;;;;3604356;39;21003;-65
2021/06/24 05:33:03;;;;;;;12.47;11.97;;;25.20;97.00;;;;;;3604812;39;20495;-65
2021/06/24 05:35:31;;;;;;;12.67;11.87;;;25.20;97.00;;;;;;3602360;39;21209;-65
2021/06/24 05:37:59;;;;;;;13.77;13.10;;;25.20;97.00;;;;;;3603421;39;20467;-65
2021/06/24 05:40:27;;;;;;;13.10;12.60;;;25.20;97.00;;;;;;3604369;39;20468;-65
2021/06/24 05:42:54;;;;;;;12.97;12.37;;;25.20;97.00;;;;;;3601689;39;20486;-65
2021/06/24 05:45:27;;;;;;;13.60;13.00;;;25.20;97.00;;;;;;3589818;39;20705;-65
2021/06/24 05:47:56;;;;;;;13.03;12.43;;;25.20;97.00;;;;;;3598216;39;21018;-65
2021/06/24 05:50:23;;;;;;;13.23;12.63;;;25.20;97.00;;;;;;3601714;39;20495;-65
2021/06/24 05:52:53;;;;;;;12.50;12.00;;;25.20;97.10;;;;;;3588016;39;20560;-65
2021/06/24 05:55:20;;;;;;;12.87;12.20;;;25.20;97.00;;;;;;3596691;39;20483;-65
2021/06/24 05:57:48;;;;;;;12.17;11.67;;;25.20;96.90;;;;;;3595377;39;20666;-65
2021/06/24 06:00:16;;;;;;;11.60;11.10;;;25.30;96.90;;;;;;3597905;39;20490;-65
2021/06/24 06:02:44;;;;;;;11.93;11.43;;;25.30;96.90;;;;;;3591583;39;20723;-65
2021/06/24 06:05:12;;;;;;;11.47;11.07;;;25.20;96.90;;;;;;3592372;39;20576;-65
2021/06/24 06:07:39;;;;;;;12.17;11.43;;;24.90;97.50;;;;;;3598401;39;20813;-65
2021/06/24 06:10:07;;;;;;;11.70;11.20;;;24.50;97.80;;;;;;3597154;39;20541;-66
2021/06/24 06:12:34;;;;;;;11.57;10.90;;;24.30;97.80;;;;;;3592435;39;21233;-66
2021/06/24 06:15:02;;;;;;;11.10;10.70;;;24.00;98.30;;;;;;3593459;39;20551;-66
2021/06/24 06:17:30;;;;;;;10.67;10.27;;;23.80;98.60;;;;;;3593940;39;20643;-66
2021/06/24 06:19:57;;;;;;;11.70;10.87;;;23.70;99.00;;;;;;3594431;39;20616;-66
2021/06/24 06:22:24;;;;;;;11.47;10.97;;;23.50;99.30;;;;;;3592540;39;20526;-65
2021/06/24 06:24:51;;;;;;;11.00;10.60;;;23.40;99.80;;;;;;3596352;39;20841;-65
2021/06/24 06:27:18;;;;;;;10.97;10.57;;;23.40;99.90;;;;;;3595711;39;20770;-66
2021/06/24 06:29:46;;;;;;;10.50;10.10;;;23.30;99.90;;;;;;3584241;39;20487;-65
2021/06/24 06:32:14;;;;;;;10.33;10.03;;;23.20;99.90;;;;;;3595075;39;20494;-65
2021/06/24 06:34:41;;;;;;;10.53;10.13;;;23.20;99.90;;;;;;3592963;39;20487;-65
2021/06/24 06:37:08;;;;;;;10.77;10.37;;;23.20;99.90;;;;;;3588626;39;20918;-66
2021/06/24 06:39:36;;;;;;;11.20;10.37;;;23.20;99.90;;;;;;3591667;39;20479;-65
2021/06/24 06:42:03;;;;;;;11.37;10.87;;;23.10;99.90;;;;;;3595006;39;20479;-65
2021/06/24 06:44:30;;;;;;;11.37;10.97;;;23.00;99.90;;;;;;3598637;39;20721;-65
2021/06/24 06:46:57;;;;;;;11.10;10.63;;;23.00;99.90;;;;;;3594567;39;20506;-65
2021/06/24 06:49:26;;;;;;;11.93;11.30;;;23.00;99.90;;;;;;3596177;39;20490;-65
2021/06/24 06:51:53;;;;;;;12.83;12.43;;;23.00;99.90;;;;;;3592640;39;21102;-65
2021/06/24 06:54:21;;;;;;;12.73;12.13;;;23.00;99.90;;;;;;3590745;39;21187;-65
2021/06/24 06:56:48;;;;;;;12.47;11.97;;;23.00;99.90;;;;;;3597437;39;20481;-65
2021/06/24 06:59:15;;;;;;;12.20;11.70;;;23.10;99.90;;;;;;3596204;39;20489;-66
2021/06/24 07:01:42;;;;;;;12.37;11.67;;;23.20;99.90;;;;;;3596781;39;21273;-67
2021/06/24 07:04:09;;;;;;;11.60;11.20;;;23.30;99.90;;;;;;3592839;39;20491;-67
2021/06/24 07:06:56;;;;;;;11.80;11.20;;;23.30;99.90;;;;;;3585236;39;20740;-67
2021/06/24 07:09:23;;;;;;;10.87;10.37;;;23.30;99.90;;;;;;3590994;39;20921;-67
2021/06/24 07:11:50;;;;;;;11.20;10.80;;;23.40;99.90;;;;;;3594187;39;20513;-67
2021/06/24 07:14:18;;;;;;;12.10;11.23;;;23.50;99.90;;;;;;3591954;39;20802;-67
2021/06/24 07:16:46;;;;;;;11.30;10.90;;;23.40;99.90;;;;;;3589442;39;20727;-67
2021/06/24 07:19:13;;;;;;;11.00;10.60;;;23.40;99.80;;;;;;3590035;39;20583;-66
2021/06/24 07:21:40;;;;;;;11.73;11.23;;;23.40;99.70;;;;;;3589832;39;20550;-66
2021/06/24 07:24:09;;;;;;;11.50;11.00;;;23.50;99.70;;;;;;3587696;39;21046;-67
2021/06/24 07:26:39;;;;;;;11.20;10.80;;;23.50;99.90;;;;;;3586552;39;20741;-66
2021/06/24 07:29:07;;;;;;;11.60;11.20;;;23.50;99.90;;;;;;3588687;39;20533;-67
2021/06/24 07:31:34;;;;;;;11.40;11.00;;;23.60;99.50;;;;;;3589490;39;20754;-66
2021/06/24 07:34:01;;;;;;;10.70;10.40;;;23.70;99.50;;;;;;3588654;39;20700;-67
2021/06/24 07:36:28;;;;;;;11.53;11.13;;;23.70;99.90;;;;;;3591165;39;20471;-64
2021/06/24 07:38:55;;;;;;;11.40;11.00;;;23.80;99.80;;;;;;3592021;39;20475;-66
2021/06/24 07:41:24;;;;;;;11.20;10.80;;;23.90;99.50;;;;;;3595890;39;20492;-66
2021/06/24 07:43:52;;;;;;;11.03;10.60;;;24.00;99.30;;;;;;3590453;39;20722;-68
2021/06/24 07:46:19;;;;;;;11.37;10.93;;;24.10;98.90;;;;;;3592329;39;20522;-67
2021/06/24 07:48:47;;;;;;;11.60;11.10;;;24.10;98.70;;;;;;3591616;39;20487;-66
2021/06/24 07:51:15;;;;;;;11.00;10.60;;;24.10;98.50;;;;;;3592742;39;20494;-68
2021/06/24 07:53:43;;;;;;;10.50;10.20;;;24.20;98.30;;;;;;3593940;39;20471;-68
2021/06/24 07:56:10;;;;;;;12.40;12.00;;;24.10;97.60;;;;;;3588515;39;20473;-68
2021/06/24 07:58:39;;;;;;;10.33;10.03;;;24.20;97.70;;;;;;3591626;39;20501;-68
2021/06/24 08:01:08;;;;;;;10.53;10.13;;;24.30;97.50;;;;;;3594880;39;20495;-67
2021/06/24 08:03:35;;;;;;;10.27;9.97;;;24.40;97.10;;;;;;3590051;39;20502;-67
2021/06/24 08:06:03;;;;;;;11.23;10.63;;;24.30;96.90;;;;;;3593014;39;20490;-67
2021/06/24 08:08:31;;;;;;;11.63;11.13;;;24.40;97.00;;;;;;3595900;39;20675;-67
2021/06/24 08:10:58;;;;;;;12.83;12.23;;;24.50;97.20;;;;;;3592180;39;20503;-67
2021/06/24 08:13:26;;;;;;;11.50;11.10;;;24.60;97.30;;;;;;3594639;39;20755;-67
2021/06/24 08:15:56;;;;;;;10.60;10.20;;;24.60;97.20;;;;;;3594494;39;20507;-67
2021/06/24 08:18:24;;;;;;;10.40;9.97;;;24.70;97.10;;;;;;3594482;39;20880;-67
2021/06/24 08:20:51;;;;;;;11.30;10.90;;;24.70;97.00;;;;;;3596104;39;20719;-65
2021/06/24 08:23:20;;;;;;;10.30;9.80;;;24.80;97.00;;;;;;3594597;39;20513;-67
2021/06/24 08:25:48;;;;;;;10.63;10.13;;;24.80;97.00;;;;;;3582235;39;20479;-67
2021/06/24 08:28:16;;;;;;;10.27;9.83;;;24.80;96.70;;;;;;3593099;39;20748;-67
2021/06/24 08:30:44;;;;;;;10.13;9.83;;;24.70;96.30;;;;;;3596118;39;20471;-67
2021/06/24 08:33:14;;;;;;;10.47;10.17;;;24.60;96.30;;;;;;3594564;39;21165;-68
2021/06/24 08:35:42;;;;;;;11.10;10.70;;;24.60;96.50;;;;;;3593293;39;20821;-68
2021/06/24 08:38:10;;;;;;;10.40;10.10;;;24.60;96.40;;;;;;3592340;39;20503;-67
2021/06/24 08:40:39;;;;;;;11.23;10.83;;;24.70;96.60;;;;;;3596024;39;20472;-67
2021/06/24 08:43:07;;;;;;;10.53;10.10;;;24.70;96.80;;;;;;3592351;39;21228;-67
2021/06/24 08:45:34;;;;;;;10.07;9.67;;;24.70;97.10;;;;;;3595030;39;21138;-67
2021/06/24 08:48:01;;;;;;;9.73;9.43;;;24.70;96.90;;;;;;3591713;39;20495;-67
2021/06/24 08:50:30;;;;;;;11.10;10.70;;;24.80;96.80;;;;;;3591319;39;20483;-67
2021/06/24 08:52:57;;;;;;;11.90;11.10;;;24.80;96.60;;;;;;3589564;39;20499;-67
2021/06/24 08:55:35;;;;;;;11.30;10.83;;;24.80;96.60;;;;;;3589842;39;20877;-67
2021/06/24 08:58:03;;;;;;;11.20;10.80;;;24.80;96.40;;;;;;3594347;39;20487;-67
2021/06/24 09:00:30;;;;;;;12.10;11.70;;;24.80;96.70;;;;;;3589864;39;20683;-67
2021/06/24 09:02:59;;;;;;;11.10;10.60;;;24.70;96.90;;;;;;3587616;39;20970;-66
2021/06/24 09:05:54;;;;;;;11.70;11.30;;;24.70;96.90;;;;;;3586986;39;20510;-67
2021/06/24 09:08:27;;;;;;;11.87;11.37;;;24.70;96.70;;;;;;3590640;39;20550;-67
2021/06/24 09:11:17;;;;;;;12.03;11.53;;;24.70;96.40;;;;;;3584412;39;20496;-67
2021/06/24 09:13:57;;;;;;;11.97;11.47;;;24.70;96.10;;;;;;3585211;39;20630;-67
2021/06/24 09:16:26;;;;;;;11.57;11.17;;;24.60;96.10;;;;;;3590972;39;20502;-67
2021/06/24 09:19:12;;;;;;;10.50;10.20;;;24.60;96.10;;;;;;3586216;39;20948;-67
2021/06/24 09:21:40;;;;;;;12.00;11.60;;;24.50;96.40;;;;;;3592367;39;20571;-67
2021/06/24 09:24:22;;;;;;;11.60;11.10;;;24.60;96.00;;;;;;3592997;39;20491;-67
2021/06/24 09:26:49;;;;;;;11.60;10.97;;;24.60;96.40;;;;;;3593606;39;20483;-67
2021/06/24 09:29:17;;;;;;;12.53;12.03;;;24.50;96.70;;;;;;3596406;39;20723;-67
2021/06/24 09:31:48;;;;;;;12.03;11.63;;;24.60;96.80;;;;;;3594551;39;20788;-67
2021/06/24 09:34:17;;;;;;;12.73;12.30;;;24.60;97.00;;;;;;3596280;39;20921;-67
2021/06/24 09:36:47;;;;;;;10.83;10.40;;;24.60;97.00;;;;;;3590372;39;20575;-67
2021/06/24 09:39:29;;;;;;;10.37;10.07;;;24.60;96.90;;;;;;3591082;39;21094;-67
2021/06/24 09:41:58;;;;;;;10.43;10.13;;;24.60;97.10;;;;;;3592180;39;20539;-67
2021/06/24 09:44:26;;;;;;;10.40;10.00;;;24.50;97.10;;;;;;3593028;39;20841;-67
2021/06/24 09:46:53;;;;;;;10.70;10.30;;;24.40;96.70;;;;;;3592552;39;20475;-67
2021/06/24 09:49:28;;;;;;;10.50;9.90;;;24.30;96.80;;;;;;3592548;39;20483;-67
2021/06/24 09:51:58;;;;;;;12.13;11.53;;;24.20;97.10;;;;;;3589568;39;20545;-66
2021/06/24 09:54:38;;;;;;;11.70;11.20;;;24.20;96.80;;;;;;3582508;39;21093;-66
2021/06/24 09:57:07;;;;;;;10.50;10.10;;;24.20;96.60;;;;;;3589262;39;20707;-66
2021/06/24 09:59:36;;;;;;;10.50;10.20;;;24.20;96.80;;;;;;3587422;39;20851;-66
2021/06/24 10:02:08;;;;;;;10.30;9.90;;;24.20;97.00;;;;;;3595084;39;20780;-66
2021/06/24 10:04:37;;;;;;;10.93;10.53;;;24.20;97.30;;;;;;3588631;39;20788;-67
2021/06/24 10:07:09;;;;;;;10.07;9.67;;;24.20;97.10;;;;;;3585591;39;20535;-67
2021/06/24 10:09:38;;;;;;;9.70;9.40;;;24.30;97.70;;;;;;3588999;39;20483;-67
2021/06/24 10:12:06;;;;;;;9.90;9.50;;;24.30;97.80;;;;;;3591648;39;20597;-67
2021/06/24 10:14:33;;;;;;;10.70;10.30;;;24.30;98.00;;;;;;3589371;39;20493;-67
2021/06/24 10:17:03;;;;;;;10.10;9.80;;;24.30;97.90;;;;;;3594656;39;20903;-67
2021/06/24 10:19:31;;;;;;;9.90;9.60;;;24.30;97.40;;;;;;3592825;39;20498;-67
2021/06/24 10:22:09;;;;;;;10.47;9.97;;;24.30;96.70;;;;;;3592819;39;20707;-67
2021/06/24 10:24:40;;;;;;;10.57;10.17;;;24.20;96.50;;;;;;3593891;39;20776;-67
2021/06/24 10:27:10;;;;;;;10.87;10.47;;;24.20;97.20;;;;;;3590581;39;20498;-67
2021/06/24 10:29:46;;;;;;;10.30;10.00;;;24.30;97.50;;;;;;3583062;39;20498;-67
2021/06/24 10:32:37;;;;;;;11.20;10.80;;;24.30;97.30;;;;;;3592201;39;21080;-67
2021/06/24 10:35:07;;;;;;;10.90;10.43;;;24.40;97.60;;;;;;3585181;39;20499;-67
2021/06/24 10:37:36;;;;;;;11.43;11.03;;;24.50;97.20;;;;;;3576311;39;20515;-67
2021/06/24 10:40:24;;;;;;;12.07;11.43;;;24.60;96.80;;;;;;3588206;39;20487;-67
2021/06/24 10:42:52;;;;;;;10.87;10.50;;;24.60;96.50;;;;;;3579633;39;21164;-67
2021/06/24 10:45:21;;;;;;;11.50;11.10;;;24.60;96.30;;;;;;3589729;39;20797;-67
2021/06/24 10:47:48;;;;;;;10.83;10.43;;;24.60;96.60;;;;;;3590652;39;20487;-66
2021/06/24 10:50:38;;;;;;;10.67;10.37;;;24.60;96.30;;;;;;3584135;39;20731;-66
2021/06/24 10:53:47;;;;;;;10.50;10.20;;;24.60;96.30;;;;;;3591526;39;20981;-65
2021/06/24 10:56:31;;;;;;;11.10;10.70;;;24.60;96.30;;;;;;3592782;39;20482;-66
2021/06/24 10:58:59;;;;;;;11.10;10.50;;;24.70;96.10;;;;;;3586531;39;20663;-65
2021/06/24 11:01:43;;;;;;;11.93;11.53;;;24.70;95.80;;;;;;3586186;39;21016;-66
2021/06/24 11:04:32;;;;;;;11.03;10.63;;;24.80;95.70;;;;;;3593253;39;20506;-67
2021/06/24 11:07:06;;;;;;;11.60;11.10;;;24.80;95.90;;;;;;3593728;39;20502;-66
2021/06/24 11:09:33;;;;;;;10.63;10.17;;;24.80;95.90;;;;;;3589723;39;21178;-67
2021/06/24 11:12:02;;;;;;;11.13;10.73;;;24.90;95.80;;;;;;3590475;39;20882;-67
2021/06/24 11:14:53;;;;;;;13.00;12.03;;;24.90;95.70;;;;;;3594922;39;20922;-67
2021/06/24 11:17:49;;;;;;;13.87;13.17;;;24.90;95.70;;;;;;3591737;39;20510;-67
2021/06/24 11:20:19;;;;;;;12.37;11.77;;;25.00;95.80;;;;;;3594648;39;20495;-67
2021/06/24 11:22:51;;;;;;;12.80;12.20;;;24.90;94.70;;;;;;3594532;39;21069;-67
2021/06/24 11:25:19;;;;;;;12.40;11.80;;;25.00;94.90;;;;;;3595039;39;20483;-67
2021/06/24 11:27:47;;;;;;;12.67;12.00;;;25.00;95.10;;;;;;3592000;39;20706;-67
2021/06/24 11:30:15;;;;;;;12.20;11.70;;;25.00;95.20;;;;;;3592388;39;20947;-67
2021/06/24 11:32:49;;;;;;;12.10;11.60;;;25.00;95.10;;;;;;3594398;39;20499;-67
2021/06/24 11:35:51;;;;;;;13.40;12.80;;;25.10;95.10;;;;;;3591618;39;20500;-67
2021/06/24 11:38:18;;;;;;;11.37;10.90;;;25.10;95.10;;;;;;3582002;39;20587;-67
2021/06/24 11:40:45;;;;;;;11.60;11.17;;;25.10;95.10;;;;;;3590760;39;20814;-67
2021/06/24 11:43:14;;;;;;;11.60;11.20;;;25.10;94.60;;;;;;3592769;39;20700;-67
2021/06/24 11:45:44;;;;;;;11.17;10.77;;;25.00;94.10;;;;;;3590130;39;20802;-67
2021/06/24 11:48:14;;;;;;;11.00;10.60;;;25.00;94.60;;;;;;3591175;39;20516;-67
2021/06/24 12:03:03;;;;;;;11.13;10.70;;;25.10;94.90;;;;;;3591536;39;20766;-67
2021/06/24 12:04:45;;;;;;;10.90;10.30;;;25.10;94.90;;;;;;3591656;39;20732;-66
2021/06/24 12:07:13;;;;;;;8.80;8.50;;;25.10;94.90;;;;;;3590837;39;20953;-67
2021/06/24 12:09:43;;;;;;;10.03;9.73;;;25.10;94.80;;;;;;3593856;39;20530;-67
2021/06/24 12:12:13;;;;;;;10.10;9.70;;;25.00;94.60;;;;;;3596914;39;20471;-67
2021/06/24 12:14:43;;;;;;;10.67;10.27;;;25.00;94.80;;;;;;3589753;39;20673;-67
2021/06/24 12:17:22;;;;;;;10.70;10.30;;;25.10;95.10;;;;;;3591265;39;20510;-67
2021/06/24 12:19:52;;;;;;;10.20;9.80;;;25.10;95.00;;;;;;3592956;39;20856;-64
2021/06/24 12:22:23;;;;;;;10.30;9.90;;;25.10;94.90;;;;;;3593053;39;20643;-64
2021/06/24 12:24:51;;;;;;;10.43;10.13;;;25.00;94.60;;;;;;3592222;39;20741;-65
2021/06/24 12:27:23;;;;;;;10.30;10.00;;;25.00;94.70;;;;;;3594738;39;20464;-65
2021/06/24 12:29:54;;;;;;;11.20;10.80;;;25.00;94.70;;;;;;3596573;39;20479;-64
2021/06/24 12:32:22;;;;;;;10.27;9.97;;;25.10;94.90;;;;;;3589780;39;20634;-65
2021/06/24 12:34:50;;;;;;;11.20;10.80;;;25.10;94.90;;;;;;3588771;39;20523;-65
2021/06/24 12:37:44;;;;;;;11.50;11.10;;;25.20;95.00;;;;;;3590248;39;20961;-65
2021/06/24 12:40:14;;;;;;;11.73;11.27;;;25.20;95.00;;;;;;3580952;39;20782;-65
2021/06/24 12:42:46;;;;;;;11.40;11.00;;;25.20;95.00;;;;;;3593019;39;20701;-65
2021/06/24 12:45:17;;;;;;;12.30;11.70;;;25.20;95.00;;;;;;3593357;39;21284;-65
2021/06/24 12:47:45;;;;;;;11.27;10.87;;;25.20;94.90;;;;;;3596016;39;20487;-65
2021/06/24 12:50:15;;;;;;;11.30;10.90;;;25.20;94.80;;;;;;3595714;39;20487;-65
2021/06/24 12:52:48;;;;;;;11.30;10.90;;;25.20;94.40;;;;;;3595814;39;20758;-64
2021/06/24 12:55:44;;;;;;;11.30;10.90;;;25.20;94.20;;;;;;3593154;39;20583;-65
2021/06/24 12:58:16;;;;;;;11.07;10.63;;;25.20;94.30;;;;;;3597142;39;20832;-65
2021/06/24 13:00:54;;;;;;;10.93;10.37;;;25.20;94.10;;;;;;3595033;39;20568;-64
2021/06/24 13:03:38;;;;;;;10.43;10.03;;;25.20;94.10;;;;;;3596650;39;20471;-64